Plain, Washington
Current Conditions -  °F | °C
As of 7:55 AM on Wednesday 28 Jan 2015 (Local Time) from KEAT Reporting Station
Moderate Fog Moderate Fog  
Wind Chill: 29°   Ceiling: 200
Heat Index: 34°   Visibility: 0.25mi
Dew Point: 33°   Wind: 6mph
Humidity: 96%   Direction: 130°SE
Pressure: 30.37"   Gusts: NA
Location:  47.7866°N, 120.856°W
Report Text: KEAT 281555Z AUTO 13005KT 1/4SM FG VV002 01/01 A3037 RMK AO2 SLP295 T00110006
Loading
Personal Weather Stations






























Interactive Weather Map New forecast layout! Learn more

10-Day Weather Forecast

Advertisements
Track Severe Weather on mobile